Time;durP1;ratioP1;P1;durP2;ratioP2;P2;SDS_P1;SDS_P2;PMS_P1;PMS_P2;Temp;Humidity;BMP_temperature;BMP_pressure;BME280_temperature;BME280_humidity;BME280_pressure;Samples;Min_cycle;Max_cycle;Signal;HPM_P1;HPM_P2
2022/03/14 00:00:51;;;;;;;8.68;4.80;;;4.60;42.30;;;;;;5071263;28;20345;-77
2022/03/14 00:03:17;;;;;;;7.22;4.35;;;4.70;42.00;;;;;;5063249;28;20037;-77
2022/03/14 00:05:43;;;;;;;8.95;4.60;;;4.70;41.90;;;;;;5072632;28;20027;-77
2022/03/14 00:08:09;;;;;;;8.65;4.47;;;4.60;42.20;;;;;;5072274;28;20105;-77
2022/03/14 00:10:34;;;;;;;10.95;4.78;;;4.60;42.20;;;;;;5068716;28;20075;-77
2022/03/14 00:13:00;;;;;;;8.50;4.95;;;4.60;42.20;;;;;;5062878;28;20181;-77
2022/03/14 00:15:33;;;;;;;10.23;4.68;;;4.60;41.90;;;;;;5074046;28;20047;-77
2022/03/14 00:18:01;;;;;;;9.93;4.55;;;4.60;42.30;;;;;;5074083;28;20027;-77
2022/03/14 00:20:27;;;;;;;12.35;5.00;;;4.50;42.40;;;;;;5065089;28;20017;-77
2022/03/14 00:22:53;;;;;;;6.45;4.25;;;4.50;42.50;;;;;;5063835;28;20036;-77
2022/03/14 00:25:19;;;;;;;6.97;4.45;;;4.50;42.50;;;;;;5068763;28;20024;-77
2022/03/14 00:27:44;;;;;;;8.32;4.80;;;4.60;42.20;;;;;;5065953;28;20460;-76
2022/03/14 00:30:12;;;;;;;8.35;4.88;;;4.40;42.50;;;;;;5073137;28;20078;-76
2022/03/14 00:32:38;;;;;;;8.10;4.93;;;4.40;42.90;;;;;;5073382;28;20494;-77
2022/03/14 00:35:06;;;;;;;8.07;4.65;;;4.30;43.10;;;;;;5058714;28;20036;-77
2022/03/14 00:37:32;;;;;;;9.10;4.88;;;4.30;42.90;;;;;;5065836;28;20127;-77
2022/03/14 00:39:57;;;;;;;6.50;4.55;;;4.30;42.90;;;;;;5071719;28;20108;-77
2022/03/14 00:42:23;;;;;;;9.85;4.63;;;4.10;43.60;;;;;;5071987;28;20076;-76
2022/03/14 00:44:50;;;;;;;8.57;4.70;;;4.10;43.70;;;;;;5074298;28;20025;-76
2022/03/14 00:47:16;;;;;;;7.60;4.00;;;4.20;43.20;;;;;;5071233;28;20383;-76
2022/03/14 00:49:43;;;;;;;8.60;4.65;;;4.10;43.50;;;;;;5073119;28;20111;-76
2022/03/14 00:52:10;;;;;;;8.32;4.40;;;4.10;43.60;;;;;;5071967;28;20456;-77
2022/03/14 00:54:36;;;;;;;7.28;3.95;;;4.10;43.70;;;;;;5070810;28;20037;-77
2022/03/14 00:57:01;;;;;;;9.48;4.63;;;4.10;43.40;;;;;;5069557;28;20051;-77
2022/03/14 00:59:27;;;;;;;9.77;5.13;;;4.40;42.20;;;;;;5067781;28;20028;-76
2022/03/14 01:01:54;;;;;;;8.18;4.43;;;4.30;42.70;;;;;;5070631;28;20024;-77
2022/03/14 01:04:19;;;;;;;10.43;4.63;;;4.40;42.30;;;;;;5072513;28;20059;-77
2022/03/14 01:06:45;;;;;;;8.45;4.80;;;4.30;42.70;;;;;;5072970;28;20056;-77
2022/03/14 01:09:14;;;;;;;10.65;5.05;;;4.00;43.90;;;;;;5070700;28;20032;-76
2022/03/14 01:11:41;;;;;;;9.43;4.45;;;4.00;43.80;;;;;;5073260;28;20032;-76
2022/03/14 01:14:07;;;;;;;7.78;4.63;;;4.00;44.00;;;;;;5071863;28;20104;-77
2022/03/14 01:16:34;;;;;;;8.27;4.82;;;3.90;44.30;;;;;;5071131;28;20029;-76
2022/03/14 01:19:00;;;;;;;10.80;4.80;;;4.00;44.00;;;;;;5072759;28;20107;-76
2022/03/14 01:21:26;;;;;;;10.38;5.03;;;3.90;44.20;;;;;;5072431;28;20107;-77
2022/03/14 01:23:51;;;;;;;9.18;5.13;;;3.80;44.50;;;;;;5071879;28;20116;-77
2022/03/14 01:26:17;;;;;;;7.90;4.60;;;3.90;44.30;;;;;;5069717;28;20125;-76
2022/03/14 01:28:43;;;;;;;9.18;4.55;;;3.90;44.00;;;;;;5074796;28;20272;-77
2022/03/14 01:31:09;;;;;;;8.68;4.65;;;3.90;44.30;;;;;;5071495;28;20363;-77
2022/03/14 01:33:34;;;;;;;8.85;4.75;;;3.90;44.30;;;;;;5072788;28;20132;-77
2022/03/14 01:36:00;;;;;;;8.70;4.95;;;3.80;44.40;;;;;;5070476;28;20032;-76
2022/03/14 01:38:25;;;;;;;9.50;4.78;;;3.80;44.50;;;;;;5069749;28;20031;-77
2022/03/14 01:40:51;;;;;;;9.18;4.30;;;3.90;44.40;;;;;;5067298;28;20033;-77
2022/03/14 01:43:17;;;;;;;8.93;4.47;;;3.80;44.40;;;;;;5073235;28;20052;-76
2022/03/14 01:45:46;;;;;;;9.27;5.07;;;3.80;44.50;;;;;;5071668;28;20021;-77
2022/03/14 01:48:12;;;;;;;9.77;4.63;;;3.70;44.50;;;;;;5072683;28;20028;-77
2022/03/14 01:50:37;;;;;;;10.75;4.68;;;3.90;44.00;;;;;;5069402;28;20032;-77
2022/03/14 01:53:03;;;;;;;10.65;4.40;;;3.80;44.30;;;;;;5068853;28;20043;-76
2022/03/14 01:55:29;;;;;;;9.35;4.60;;;3.70;44.70;;;;;;5063907;28;20043;-76
2022/03/14 01:57:56;;;;;;;11.48;4.82;;;3.80;44.40;;;;;;5071362;28;20024;-76
2022/03/14 02:00:21;;;;;;;9.40;5.32;;;3.70;44.70;;;;;;5072016;28;20025;-76
2022/03/14 02:02:48;;;;;;;10.80;5.10;;;3.80;44.40;;;;;;5071216;28;20039;-77
2022/03/14 02:05:14;;;;;;;9.02;4.70;;;3.70;44.80;;;;;;5067849;28;20436;-76
2022/03/14 02:07:39;;;;;;;9.98;4.97;;;3.70;44.90;;;;;;5071516;28;20347;-77
2022/03/14 02:10:06;;;;;;;9.65;4.57;;;3.50;45.60;;;;;;5060759;28;20096;-77
2022/03/14 02:12:31;;;;;;;13.68;5.22;;;3.60;45.30;;;;;;5086775;28;20033;-76
2022/03/14 02:14:57;;;;;;;9.30;4.93;;;3.50;45.60;;;;;;5069205;28;20074;-76
2022/03/14 02:17:22;;;;;;;9.07;5.07;;;3.50;45.60;;;;;;5068519;28;20557;-76
2022/03/14 02:19:48;;;;;;;8.57;4.88;;;3.40;46.10;;;;;;5064076;28;20029;-77
2022/03/14 02:22:14;;;;;;;10.00;5.20;;;3.40;46.00;;;;;;5065079;28;20032;-76
2022/03/14 02:24:41;;;;;;;11.02;4.93;;;3.50;45.70;;;;;;5066649;28;20037;-76
2022/03/14 02:27:07;;;;;;;9.68;5.03;;;3.50;45.90;;;;;;5055352;28;20028;-76
2022/03/14 02:29:33;;;;;;;9.38;4.50;;;3.50;45.90;;;;;;5070812;28;20569;-76
2022/03/14 02:31:59;;;;;;;8.57;4.88;;;3.50;45.90;;;;;;5071366;28;20076;-76
2022/03/14 02:34:24;;;;;;;10.35;5.10;;;3.50;45.80;;;;;;5070566;28;20032;-76
2022/03/14 02:36:50;;;;;;;7.40;4.28;;;3.50;45.70;;;;;;5069343;28;20019;-77
2022/03/14 02:39:15;;;;;;;12.07;5.68;;;3.60;45.50;;;;;;5064080;28;20503;-76
2022/03/14 02:41:42;;;;;;;9.48;4.85;;;3.50;46.00;;;;;;5071600;28;20036;-76
2022/03/14 02:44:08;;;;;;;10.52;4.90;;;3.50;46.10;;;;;;5070381;28;20021;-76
2022/03/14 02:46:40;;;;;;;10.43;5.30;;;3.40;46.20;;;;;;5070983;28;20090;-76
2022/03/14 02:49:08;;;;;;;9.45;5.07;;;3.40;46.60;;;;;;5057236;28;20027;-76
2022/03/14 02:51:34;;;;;;;10.27;5.22;;;3.40;46.50;;;;;;5063792;28;20048;-76
2022/03/14 02:54:02;;;;;;;9.55;5.22;;;3.30;46.90;;;;;;5068193;28;20465;-76
2022/03/14 02:56:27;;;;;;;9.00;5.28;;;3.30;46.80;;;;;;5067830;28;20027;-76
2022/03/14 02:58:53;;;;;;;8.73;5.13;;;3.30;46.70;;;;;;5070625;28;20032;-77
2022/03/14 03:01:19;;;;;;;12.35;5.57;;;3.20;47.20;;;;;;5071373;28;20024;-76
2022/03/14 03:03:45;;;;;;;11.05;5.38;;;3.30;47.10;;;;;;5070950;28;20029;-76
2022/03/14 03:06:13;;;;;;;9.43;5.20;;;3.40;46.80;;;;;;5066516;28;20028;-76
2022/03/14 03:08:43;;;;;;;10.13;5.07;;;3.30;46.70;;;;;;5067442;28;20116;-76
2022/03/14 03:11:11;;;;;;;8.45;4.95;;;3.30;47.10;;;;;;5061706;28;20032;-76
2022/03/14 03:13:37;;;;;;;10.80;5.43;;;3.30;47.00;;;;;;5070687;28;20041;-76
2022/03/14 03:16:04;;;;;;;12.13;6.30;;;3.30;47.00;;;;;;5068664;28;20028;-76
2022/03/14 03:18:29;;;;;;;9.55;5.15;;;3.20;47.20;;;;;;5071371;28;20027;-76
2022/03/14 03:20:55;;;;;;;12.18;5.03;;;3.10;47.80;;;;;;5069406;28;20032;-77
2022/03/14 03:23:20;;;;;;;8.80;5.28;;;3.10;48.10;;;;;;5058026;28;20475;-76
2022/03/14 03:25:46;;;;;;;11.43;5.43;;;3.10;48.00;;;;;;5066355;28;20025;-76
2022/03/14 03:28:11;;;;;;;8.13;4.93;;;3.10;48.40;;;;;;5070329;28;20099;-76
2022/03/14 03:30:37;;;;;;;9.63;4.78;;;3.00;48.60;;;;;;5069728;28;20025;-76
2022/03/14 03:33:02;;;;;;;12.45;5.63;;;3.00;48.60;;;;;;5070407;28;20037;-77
2022/03/14 03:35:28;;;;;;;15.70;5.45;;;3.00;48.70;;;;;;5067624;28;20120;-76
2022/03/14 03:37:53;;;;;;;9.50;5.05;;;2.90;49.10;;;;;;5064786;28;20039;-76
2022/03/14 03:40:19;;;;;;;9.65;5.03;;;3.00;49.00;;;;;;5066627;28;20496;-76
2022/03/14 03:42:44;;;;;;;9.82;5.13;;;2.90;49.40;;;;;;5071294;28;20059;-76
2022/03/14 03:45:10;;;;;;;11.45;5.68;;;2.80;49.40;;;;;;5069992;28;20490;-76
2022/03/14 03:47:36;;;;;;;11.70;5.75;;;2.80;49.90;;;;;;5071173;28;20020;-77
2022/03/14 03:50:02;;;;;;;11.02;5.60;;;2.80;49.80;;;;;;5069350;28;20056;-76
2022/03/14 03:52:27;;;;;;;11.80;5.55;;;2.80;49.60;;;;;;5056582;28;20037;-76
2022/03/14 03:54:53;;;;;;;9.25;5.35;;;2.80;49.90;;;;;;5068200;28;20039;-76
2022/03/14 03:57:18;;;;;;;8.93;5.07;;;2.80;49.90;;;;;;5070075;28;21411;-76
2022/03/14 03:59:44;;;;;;;11.68;6.03;;;2.70;50.10;;;;;;5070422;28;20417;-76
2022/03/14 04:02:09;;;;;;;11.05;5.45;;;2.70;50.10;;;;;;5061339;28;20033;-76
2022/03/14 04:04:35;;;;;;;13.10;5.45;;;2.70;50.30;;;;;;5068773;28;20058;-76
2022/03/14 04:07:02;;;;;;;10.27;6.00;;;2.70;50.40;;;;;;5060071;28;20028;-76
2022/03/14 04:09:27;;;;;;;13.25;6.05;;;2.70;50.10;;;;;;5063535;28;20115;-76
2022/03/14 04:11:53;;;;;;;10.18;5.90;;;2.70;50.10;;;;;;5069808;28;20124;-76
2022/03/14 04:14:20;;;;;;;9.82;5.20;;;2.70;50.30;;;;;;5071032;28;20028;-76
2022/03/14 04:16:46;;;;;;;10.32;5.30;;;2.70;50.20;;;;;;5062451;28;20025;-76
2022/03/14 04:19:11;;;;;;;9.52;4.88;;;2.70;50.30;;;;;;5066953;28;20038;-76
2022/03/14 04:21:39;;;;;;;11.68;5.60;;;2.60;50.30;;;;;;5064945;28;20063;-76
2022/03/14 04:24:06;;;;;;;12.80;5.53;;;2.60;50.20;;;;;;5067320;28;20032;-76
2022/03/14 04:26:32;;;;;;;17.10;5.78;;;2.70;50.40;;;;;;5068650;28;20045;-76
2022/03/14 04:28:58;;;;;;;12.40;6.00;;;2.70;50.10;;;;;;5068145;28;20066;-77
2022/03/14 04:31:23;;;;;;;13.25;6.13;;;2.70;50.10;;;;;;5067613;28;20143;-76
2022/03/14 04:33:49;;;;;;;10.15;5.53;;;2.60;50.20;;;;;;5067384;28;20025;-76
2022/03/14 04:36:15;;;;;;;10.70;5.75;;;2.60;50.40;;;;;;5068604;28;20028;-76
2022/03/14 04:38:41;;;;;;;13.05;6.03;;;2.50;50.70;;;;;;5067216;28;20489;-77
2022/03/14 04:41:06;;;;;;;10.85;5.63;;;2.40;51.70;;;;;;5064234;28;20145;-76
2022/03/14 04:43:32;;;;;;;11.68;5.50;;;2.30;51.40;;;;;;5063642;28;20053;-76
2022/03/14 04:45:57;;;;;;;9.70;5.95;;;2.20;51.80;;;;;;5064923;28;20463;-76
2022/03/14 04:48:23;;;;;;;9.40;5.22;;;2.20;52.00;;;;;;5058464;28;20112;-76
2022/03/14 04:50:50;;;;;;;13.13;6.60;;;2.10;53.10;;;;;;5069619;28;20021;-76
2022/03/14 04:53:16;;;;;;;10.60;5.32;;;2.10;52.70;;;;;;5073441;28;20035;-76
2022/03/14 04:55:42;;;;;;;11.38;6.18;;;2.00;52.90;;;;;;5066381;28;20059;-76
2022/03/14 04:58:12;;;;;;;9.68;5.82;;;2.00;53.10;;;;;;5074657;28;20485;-76
2022/03/14 05:00:38;;;;;;;9.90;5.43;;;2.00;53.30;;;;;;5071959;28;20012;-76
2022/03/14 05:03:04;;;;;;;10.82;5.97;;;1.90;53.20;;;;;;5069304;28;20067;-76
2022/03/14 05:05:30;;;;;;;11.48;6.13;;;2.00;53.10;;;;;;5068705;28;20024;-76
2022/03/14 05:07:56;;;;;;;11.02;5.82;;;1.90;53.40;;;;;;5073025;28;20123;-76
2022/03/14 05:10:23;;;;;;;13.00;6.55;;;1.80;54.50;;;;;;5065911;28;20418;-76
2022/03/14 05:12:48;;;;;;;12.18;6.10;;;1.70;54.50;;;;;;5071087;28;20028;-76
2022/03/14 05:15:17;;;;;;;9.98;5.70;;;1.70;55.20;;;;;;5072989;28;20046;-76
2022/03/14 05:17:46;;;;;;;13.52;6.18;;;1.70;55.80;;;;;;5072538;28;20107;-77
2022/03/14 05:20:12;;;;;;;10.60;5.70;;;1.60;55.50;;;;;;5069193;28;20106;-74
2022/03/14 05:22:43;;;;;;;11.05;5.95;;;1.50;56.60;;;;;;5072737;28;20479;-74
2022/03/14 05:25:09;;;;;;;;;;;1.50;56.70;;;;;;5063764;28;20420;-74
2022/03/14 05:27:35;;;;;;;11.73;5.95;;;1.40;56.50;;;;;;5055566;28;19991;-74
2022/03/14 05:30:00;;;;;;;10.85;6.00;;;1.50;56.20;;;;;;5065593;28;20045;-74
2022/03/14 05:32:26;;;;;;;12.70;6.20;;;1.30;56.20;;;;;;5064480;28;20093;-74
2022/03/14 05:34:51;;;;;;;9.95;5.47;;;1.30;57.20;;;;;;5067267;28;20052;-74
2022/03/14 05:37:17;;;;;;;12.77;6.18;;;1.30;57.40;;;;;;5070539;28;20024;-74
2022/03/14 05:39:43;;;;;;;11.93;5.97;;;1.30;57.50;;;;;;5069742;28;20954;-74
2022/03/14 05:42:08;;;;;;;8.98;5.60;;;1.30;57.40;;;;;;5070134;28;20048;-74
2022/03/14 05:44:34;;;;;;;11.05;6.10;;;1.20;57.80;;;;;;5071017;28;20028;-74
2022/03/14 05:46:59;;;;;;;10.90;6.35;;;1.30;57.30;;;;;;5059513;28;20116;-74
2022/03/14 05:49:25;;;;;;;11.25;6.28;;;1.20;57.80;;;;;;5059188;28;20036;-74
2022/03/14 05:51:52;;;;;;;11.68;6.57;;;1.20;58.40;;;;;;5067071;28;20384;-73
2022/03/14 05:54:17;;;;;;;11.68;5.93;;;1.30;57.70;;;;;;5068662;28;20036;-74
2022/03/14 05:56:45;;;;;;;12.93;6.07;;;1.30;57.60;;;;;;5062252;28;20021;-74
2022/03/14 05:59:11;;;;;;;12.20;5.75;;;1.30;57.10;;;;;;5067061;28;20028;-74
2022/03/14 06:01:39;;;;;;;13.02;6.38;;;1.40;58.00;;;;;;5067781;28;20506;-74
2022/03/14 06:04:04;;;;;;;15.60;6.90;;;1.60;56.90;;;;;;5068142;28;20033;-74
2022/03/14 06:06:30;;;;;;;14.18;7.22;;;1.60;56.50;;;;;;5069695;28;20028;-74
2022/03/14 06:08:56;;;;;;;15.05;7.47;;;1.70;55.90;;;;;;5064479;28;20178;-74
2022/03/14 06:11:22;;;;;;;12.88;6.85;;;1.70;55.70;;;;;;5061723;28;20410;-74
2022/03/14 06:13:49;;;;;;;14.00;6.75;;;1.70;56.10;;;;;;5061782;28;20384;-74
2022/03/14 06:16:14;;;;;;;10.23;5.68;;;1.80;55.90;;;;;;5062526;28;20031;-74
2022/03/14 06:18:40;;;;;;;10.13;6.00;;;1.80;57.10;;;;;;5067598;28;20046;-72
2022/03/14 06:21:05;;;;;;;14.35;6.30;;;1.80;56.30;;;;;;5064157;28;20032;-74
2022/03/14 06:23:31;;;;;;;12.70;6.30;;;1.90;56.00;;;;;;5068173;28;20524;-73
2022/03/14 06:25:56;;;;;;;11.93;6.38;;;1.90;55.60;;;;;;5061557;28;20075;-73
2022/03/14 06:28:22;;;;;;;10.63;5.70;;;2.00;55.60;;;;;;5059402;28;20024;-73
2022/03/14 06:30:48;;;;;;;10.23;5.45;;;2.10;55.20;;;;;;5064492;28;20434;-74
2022/03/14 06:33:13;;;;;;;11.20;5.65;;;2.20;54.60;;;;;;5068444;28;20034;-74
2022/03/14 06:35:40;;;;;;;12.98;6.00;;;2.30;54.30;;;;;;5062593;28;20143;-74
2022/03/14 06:38:06;;;;;;;9.57;5.30;;;2.40;53.20;;;;;;5060882;28;20055;-74
2022/03/14 06:40:32;;;;;;;12.27;5.82;;;2.50;53.70;;;;;;5064803;28;20028;-75
2022/03/14 06:42:59;;;;;;;11.38;6.72;;;2.60;52.50;;;;;;5064596;28;20063;-75
2022/03/14 06:45:24;;;;;;;10.60;6.43;;;2.70;52.40;;;;;;5064969;28;20036;-74
2022/03/14 06:47:51;;;;;;;12.05;6.22;;;2.80;51.80;;;;;;5064848;28;20033;-73
2022/03/14 06:50:17;;;;;;;11.23;5.72;;;2.90;51.70;;;;;;5058599;28;20032;-74
2022/03/14 06:52:43;;;;;;;11.65;5.28;;;3.00;51.10;;;;;;5067914;28;20029;-74
2022/03/14 06:55:10;;;;;;;10.45;5.97;;;3.10;50.70;;;;;;5064992;28;20062;-74
2022/03/14 06:57:36;;;;;;;13.88;6.57;;;3.30;50.60;;;;;;5066774;28;20048;-74
2022/03/14 07:00:02;;;;;;;8.63;5.45;;;3.50;50.40;;;;;;5066203;28;20080;-74
2022/03/14 07:02:27;;;;;;;12.07;6.20;;;3.50;49.80;;;;;;5065941;28;20149;-74
2022/03/14 07:04:53;;;;;;;10.50;5.35;;;3.60;50.10;;;;;;5057504;28;20032;-74
2022/03/14 07:07:18;;;;;;;11.60;5.65;;;3.80;48.70;;;;;;5058845;28;20103;-74
2022/03/14 07:09:44;;;;;;;11.45;6.60;;;3.90;48.30;;;;;;5067098;28;20107;-74
2022/03/14 07:12:11;;;;;;;13.35;6.15;;;4.10;48.80;;;;;;5065256;28;20043;-75
2022/03/14 07:14:36;;;;;;;11.90;6.50;;;4.10;47.80;;;;;;5066632;28;20070;-73
2022/03/14 07:17:02;;;;;;;14.07;6.45;;;4.30;48.70;;;;;;5065128;28;20036;-73
2022/03/14 07:19:28;;;;;;;13.77;6.60;;;4.30;47.70;;;;;;5056395;28;20434;-73
2022/03/14 07:21:53;;;;;;;13.27;5.97;;;4.40;48.00;;;;;;5060863;28;20032;-72
2022/03/14 07:24:19;;;;;;;10.32;5.85;;;4.60;47.40;;;;;;5061330;28;20360;-74
2022/03/14 07:26:44;;;;;;;13.40;5.97;;;4.60;48.10;;;;;;5063769;28;20025;-74
2022/03/14 07:29:10;;;;;;;11.85;6.32;;;4.70;47.60;;;;;;5062364;28;20033;-74
2022/03/14 07:31:37;;;;;;;10.40;6.45;;;4.70;47.00;;;;;;5059704;28;20052;-74
2022/03/14 07:34:03;;;;;;;13.50;5.90;;;4.80;47.70;;;;;;5063377;28;20020;-76
2022/03/14 07:36:29;;;;;;;12.70;7.07;;;4.90;47.60;;;;;;5061019;28;20039;-74
2022/03/14 07:38:56;;;;;;;11.40;6.40;;;5.00;47.30;;;;;;5066808;28;20025;-74
2022/03/14 07:41:22;;;;;;;12.35;6.35;;;5.10;47.70;;;;;;5060765;28;20093;-75
2022/03/14 07:43:48;;;;;;;11.65;5.90;;;5.10;47.50;;;;;;5067142;28;20021;-75
2022/03/14 07:46:13;;;;;;;11.73;5.75;;;5.10;48.90;;;;;;5059242;28;20109;-74
2022/03/14 07:48:39;;;;;;;11.32;6.38;;;5.00;48.10;;;;;;5067775;28;20499;-75
2022/03/14 07:51:04;;;;;;;11.52;6.05;;;5.00;47.70;;;;;;5050972;28;20021;-74
2022/03/14 07:53:31;;;;;;;13.18;6.50;;;4.90;48.10;;;;;;5064814;28;20028;-74
2022/03/14 07:55:56;;;;;;;15.52;7.20;;;4.90;48.50;;;;;;5055237;28;20025;-73
2022/03/14 07:58:22;;;;;;;13.00;6.03;;;5.10;48.90;;;;;;5058566;28;20028;-72
2022/03/14 08:00:48;;;;;;;15.88;6.75;;;5.30;48.90;;;;;;5064225;28;20017;-72
2022/03/14 08:03:15;;;;;;;14.73;6.63;;;5.40;47.50;;;;;;5060288;28;20036;-72
2022/03/14 08:05:42;;;;;;;9.48;5.72;;;5.50;47.30;;;;;;5062314;28;20031;-73
2022/03/14 08:08:08;;;;;;;10.50;6.20;;;5.60;46.00;;;;;;5063636;28;20345;-73
2022/03/14 08:10:36;;;;;;;9.65;5.80;;;5.60;46.50;;;;;;5057199;28;20052;-72
2022/03/14 08:13:01;;;;;;;11.48;6.13;;;5.70;46.80;;;;;;5060728;28;20452;-73
2022/03/14 08:15:32;;;;;;;15.88;6.32;;;5.90;46.30;;;;;;5060747;28;20487;-73
2022/03/14 08:18:02;;;;;;;11.82;6.25;;;5.90;45.70;;;;;;5067747;28;20359;-73
2022/03/14 08:20:28;;;;;;;11.38;6.38;;;6.10;45.70;;;;;;5061308;28;20031;-73
2022/03/14 08:22:57;;;;;;;10.05;6.07;;;6.10;46.20;;;;;;5067686;28;20421;-73
2022/03/14 08:25:23;;;;;;;11.10;6.25;;;6.20;45.20;;;;;;5068199;28;20034;-73
2022/03/14 08:27:49;;;;;;;9.77;6.35;;;6.50;46.20;;;;;;5071493;28;20100;-73
2022/03/14 08:30:15;;;;;;;12.48;6.13;;;6.80;46.30;;;;;;5071267;28;20412;-73
2022/03/14 08:32:41;;;;;;;11.00;6.38;;;6.80;45.70;;;;;;5069006;28;20083;-73
2022/03/14 08:35:08;;;;;;;11.18;6.20;;;6.80;45.70;;;;;;5071707;28;20013;-73
2022/03/14 08:37:38;;;;;;;10.77;6.78;;;6.80;46.60;;;;;;5071542;28;20039;-73
2022/03/14 08:40:08;;;;;;;12.60;6.80;;;7.00;46.50;;;;;;5069617;28;21825;-73
2022/03/14 08:42:34;;;;;;;10.73;6.32;;;7.30;48.80;;;;;;5070014;28;20272;-73
2022/03/14 08:44:59;;;;;;;10.30;6.25;;;7.30;48.70;;;;;;5071105;28;20360;-73
2022/03/14 08:47:25;;;;;;;10.35;6.00;;;7.40;47.20;;;;;;5059957;28;20464;-73
2022/03/14 08:49:51;;;;;;;9.90;5.88;;;7.20;48.70;;;;;;5070952;28;20071;-73
2022/03/14 08:52:17;;;;;;;10.02;6.38;;;7.30;49.10;;;;;;5070075;28;20094;-73
2022/03/14 08:54:42;;;;;;;10.52;6.55;;;7.10;49.00;;;;;;5064683;28;20040;-74
2022/03/14 08:57:09;;;;;;;10.02;5.57;;;7.00;53.00;;;;;;5069099;28;20033;-73
2022/03/14 08:59:35;;;;;;;11.43;6.50;;;6.80;52.40;;;;;;5071405;28;20471;-73
2022/03/14 09:02:00;;;;;;;13.40;7.25;;;6.80;52.50;;;;;;5070266;28;20029;-73
2022/03/14 09:04:25;;;;;;;10.30;6.22;;;6.80;53.70;;;;;;5067717;28;20028;-73
2022/03/14 09:06:51;;;;;;;13.15;6.70;;;6.90;54.30;;;;;;5075760;28;20493;-73
2022/03/14 09:09:18;;;;;;;11.85;6.50;;;6.90;54.80;;;;;;5067955;28;20021;-73
2022/03/14 09:11:44;;;;;;;10.80;6.53;;;6.90;54.60;;;;;;5068143;28;20075;-73
2022/03/14 09:14:10;;;;;;;11.77;6.57;;;6.90;54.90;;;;;;5070302;28;20024;-73
2022/03/14 09:16:36;;;;;;;11.30;6.45;;;6.80;55.60;;;;;;5072811;28;20100;-73
2022/03/14 09:19:02;;;;;;;11.63;6.55;;;7.00;55.50;;;;;;5066660;28;20063;-73
2022/03/14 09:21:28;;;;;;;11.60;6.38;;;7.10;55.50;;;;;;5071548;28;20025;-73
2022/03/14 09:23:53;;;;;;;10.13;6.28;;;7.40;55.50;;;;;;5071997;28;20086;-73
2022/03/14 09:26:19;;;;;;;11.32;6.65;;;7.60;56.00;;;;;;5063595;28;20032;-73
2022/03/14 09:28:45;;;;;;;10.68;6.47;;;7.70;56.60;;;;;;5055400;28;20460;-73
2022/03/14 09:31:12;;;;;;;10.18;6.45;;;7.70;56.10;;;;;;5064950;28;20074;-73
2022/03/14 09:33:37;;;;;;;9.23;5.82;;;8.00;56.60;;;;;;5070855;28;20467;-73
2022/03/14 09:36:03;;;;;;;10.20;6.55;;;8.10;57.40;;;;;;5080753;28;20039;-73
2022/03/14 09:38:29;;;;;;;11.00;6.50;;;8.20;58.10;;;;;;5070398;28;20511;-73
2022/03/14 09:40:56;;;;;;;11.95;6.07;;;8.40;57.70;;;;;;5065502;28;20028;-73
2022/03/14 09:43:25;;;;;;;10.02;6.63;;;8.50;57.80;;;;;;5069542;28;20048;-73
2022/03/14 09:45:51;;;;;;;10.80;6.13;;;8.50;59.20;;;;;;5072236;28;20443;-73
2022/03/14 09:48:17;;;;;;;11.10;6.38;;;8.40;59.80;;;;;;5072346;28;20519;-73
2022/03/14 09:50:45;;;;;;;8.77;5.97;;;8.30;59.40;;;;;;5070075;28;20025;-73
2022/03/14 09:53:16;;;;;;;11.25;6.18;;;8.40;59.70;;;;;;5079877;28;20036;-74
2022/03/14 09:55:45;;;;;;;11.18;6.07;;;8.30;60.30;;;;;;5067556;28;20542;-73
2022/03/14 09:58:12;;;;;;;9.98;6.15;;;8.30;61.30;;;;;;5069814;28;20043;-73
2022/03/14 10:00:38;;;;;;;10.90;6.05;;;8.30;63.70;;;;;;5069411;28;20027;-73
2022/03/14 10:03:04;;;;;;;11.35;6.75;;;8.30;63.00;;;;;;5066339;28;20040;-73
2022/03/14 10:05:30;;;;;;;9.15;6.38;;;8.40;62.00;;;;;;5068305;28;20028;-73
2022/03/14 10:07:56;;;;;;;11.93;6.05;;;8.50;62.70;;;;;;5063794;28;20036;-73
2022/03/14 10:10:22;;;;;;;9.63;6.22;;;8.60;62.90;;;;;;5060503;28;20040;-73
2022/03/14 10:12:52;;;;;;;8.55;6.43;;;8.60;64.00;;;;;;5071663;28;20056;-73
2022/03/14 10:15:19;;;;;;;8.95;5.88;;;8.60;65.50;;;;;;5071294;28;20364;-73
2022/03/14 10:17:45;;;;;;;9.75;6.28;;;8.50;66.60;;;;;;5070211;28;20482;-73
2022/03/14 10:20:11;;;;;;;10.82;5.85;;;8.40;66.90;;;;;;5055626;28;20116;-73
2022/03/14 10:22:40;;;;;;;14.50;6.20;;;8.50;68.00;;;;;;5063535;28;20037;-73
2022/03/14 10:25:13;;;;;;;10.05;5.72;;;8.50;68.30;;;;;;5066552;28;20037;-73
2022/03/14 10:27:42;;;;;;;10.13;6.40;;;8.40;69.30;;;;;;5067007;28;20294;-73
2022/03/14 10:30:20;;;;;;;12.10;6.35;;;8.50;69.40;;;;;;5066651;28;20028;-73
2022/03/14 10:32:48;;;;;;;10.02;6.50;;;8.40;70.40;;;;;;5058169;28;20035;-73
2022/03/14 10:35:20;;;;;;;10.20;6.75;;;8.40;70.70;;;;;;5068535;28;20028;-73
2022/03/14 10:38:01;;;;;;;9.40;6.30;;;8.60;70.50;;;;;;5054700;28;20029;-73
2022/03/14 10:40:33;;;;;;;10.57;6.30;;;8.70;71.00;;;;;;5057233;28;20368;-74
2022/03/14 10:42:59;;;;;;;11.80;6.97;;;8.80;71.40;;;;;;5071671;28;20048;-73
2022/03/14 10:45:24;;;;;;;11.63;6.57;;;9.00;71.50;;;;;;5070730;28;20033;-73
2022/03/14 10:47:57;;;;;;;10.73;7.13;;;9.30;70.60;;;;;;5071138;28;20056;-74
2022/03/14 10:50:34;;;;;;;9.98;6.53;;;9.50;71.10;;;;;;5068642;28;20108;-73
2022/03/14 10:53:01;;;;;;;14.63;7.65;;;9.80;71.60;;;;;;5071832;28;20035;-73
2022/03/14 10:55:39;;;;;;;11.60;7.47;;;10.00;71.50;;;;;;5062322;28;20032;-73
2022/03/14 10:58:14;;;;;;;11.68;7.68;;;10.10;71.90;;;;;;5057257;28;20067;-73
2022/03/14 11:00:49;;;;;;;11.70;8.05;;;10.30;72.10;;;;;;5067966;28;20021;-73
2022/03/14 11:03:25;;;;;;;12.43;8.88;;;10.50;73.00;;;;;;5062207;28;20048;-73
2022/03/14 11:05:53;;;;;;;13.63;8.43;;;10.40;74.10;;;;;;5063130;28;20028;-73
2022/03/14 11:08:48;;;;;;;14.43;9.02;;;10.40;73.80;;;;;;5070529;28;20029;-73
2022/03/14 11:11:16;;;;;;;15.80;9.82;;;10.30;74.50;;;;;;5062652;28;20052;-73
2022/03/14 11:13:43;;;;;;;15.45;11.27;;;10.30;75.40;;;;;;5070507;28;20056;-73
2022/03/14 11:16:21;;;;;;;18.02;11.65;;;10.10;78.80;;;;;;5070573;28;20024;-73
2022/03/14 11:18:47;;;;;;;19.17;12.40;;;10.00;79.80;;;;;;5068007;28;20563;-73
2022/03/14 11:21:14;;;;;;;17.83;12.52;;;9.90;80.00;;;;;;5067439;28;20081;-73
2022/03/14 11:23:44;;;;;;;17.17;12.57;;;9.80;80.70;;;;;;5063710;28;20028;-73
2022/03/14 11:26:10;;;;;;;18.55;13.73;;;9.80;80.90;;;;;;5063703;28;20035;-73
2022/03/14 11:28:38;;;;;;;17.75;13.63;;;9.80;81.20;;;;;;5069525;28;20409;-73
2022/03/14 11:31:04;;;;;;;19.27;13.23;;;9.70;81.20;;;;;;5066977;28;20032;-73
2022/03/14 11:33:32;;;;;;;20.20;13.82;;;9.70;81.30;;;;;;5057232;28;20068;-73
2022/03/14 11:35:59;;;;;;;19.95;14.43;;;9.80;81.40;;;;;;5053221;28;20383;-73
2022/03/14 11:38:27;;;;;;;17.25;12.65;;;9.80;81.40;;;;;;5066651;28;20074;-73
2022/03/14 11:40:52;;;;;;;19.08;13.65;;;9.80;81.40;;;;;;5059055;28;20029;-73
2022/03/14 11:43:19;;;;;;;17.95;12.90;;;9.80;81.60;;;;;;5072388;28;20067;-73
2022/03/14 11:45:45;;;;;;;20.20;13.48;;;9.90;81.40;;;;;;5051019;28;20029;-73
2022/03/14 11:48:12;;;;;;;15.95;11.68;;;9.80;81.40;;;;;;5060212;28;20448;-73
2022/03/14 11:50:58;;;;;;;14.93;9.98;;;9.70;81.10;;;;;;5056160;28;20367;-73
2022/03/14 11:53:48;;;;;;;14.00;9.43;;;9.60;80.90;;;;;;5058638;28;20070;-73
2022/03/14 11:56:13;;;;;;;11.45;8.85;;;9.60;81.10;;;;;;5056667;28;20043;-73
2022/03/14 11:58:40;;;;;;;12.90;8.82;;;9.50;81.10;;;;;;5062466;28;20029;-73
2022/03/14 12:01:14;;;;;;;12.23;8.55;;;9.60;81.00;;;;;;5056141;28;20400;-73
2022/03/14 12:03:45;;;;;;;11.52;7.90;;;9.50;81.00;;;;;;5063769;28;20109;-73
2022/03/14 12:06:11;;;;;;;12.43;8.15;;;9.50;80.90;;;;;;5061548;28;20112;-73
2022/03/14 12:08:36;;;;;;;12.07;8.00;;;9.50;80.70;;;;;;5071332;28;20129;-73
2022/03/14 12:11:34;;;;;;;12.13;8.27;;;9.50;80.70;;;;;;5063839;28;20040;-73
2022/03/14 12:14:00;;;;;;;11.30;7.97;;;9.50;80.80;;;;;;5071158;28;20040;-73
2022/03/14 12:16:40;;;;;;;10.75;7.82;;;9.40;80.80;;;;;;5066492;28;20376;-73
2022/03/14 12:19:26;;;;;;;11.88;8.43;;;9.50;80.70;;;;;;5067414;28;20146;-73
2022/03/14 12:21:54;;;;;;;12.57;8.48;;;9.40;81.00;;;;;;5067425;28;20055;-73
2022/03/14 12:24:41;;;;;;;10.88;8.27;;;9.40;81.20;;;;;;5075897;28;20431;-73
2022/03/14 12:27:20;;;;;;;13.00;7.85;;;9.40;81.10;;;;;;5076891;28;20024;-73
2022/03/14 12:29:49;;;;;;;10.45;7.50;;;9.30;81.10;;;;;;5068679;28;20017;-73
2022/03/14 12:32:40;;;;;;;10.13;7.53;;;9.30;81.00;;;;;;5073451;28;20048;-73
2022/03/14 12:35:10;;;;;;;10.35;7.28;;;9.30;80.70;;;;;;5059516;28;20158;-73
2022/03/14 12:37:40;;;;;;;10.57;7.32;;;9.20;80.30;;;;;;5065322;28;20036;-73
2022/03/14 12:40:07;;;;;;;11.48;7.20;;;9.20;80.40;;;;;;5063049;28;20025;-73
2022/03/14 12:42:45;;;;;;;10.88;7.35;;;9.30;80.70;;;;;;5067449;28;20040;-73
2022/03/14 12:45:19;;;;;;;11.25;8.30;;;9.30;80.70;;;;;;5070731;28;20052;-73
2022/03/14 12:47:50;;;;;;;11.88;7.68;;;9.40;80.60;;;;;;5070777;28;20119;-73
2022/03/14 12:50:44;;;;;;;11.55;8.13;;;9.40;80.60;;;;;;5068871;28;20028;-73